sensor_id;sensor_type;location;lat;lon;timestamp;P1;durP1;ratioP1;P2;durP2;ratioP2
16705;SDS011;8469;60.136;15.180;2023-11-21T00:01:06;7.67;;;4.80;;
16705;SDS011;8469;60.136;15.180;2023-11-21T00:03:37;9.43;;;4.95;;
16705;SDS011;8469;60.136;15.180;2023-11-21T00:06:03;9.65;;;5.40;;
16705;SDS011;8469;60.136;15.180;2023-11-21T00:08:31;9.73;;;4.92;;
16705;SDS011;8469;60.136;15.180;2023-11-21T00:10:58;8.53;;;5.10;;
16705;SDS011;8469;60.136;15.180;2023-11-21T00:13:26;11.03;;;5.53;;
16705;SDS011;8469;60.136;15.180;2023-11-21T00:15:54;11.37;;;5.63;;
16705;SDS011;8469;60.136;15.180;2023-11-21T00:18:21;12.03;;;5.80;;
16705;SDS011;8469;60.136;15.180;2023-11-21T00:20:48;12.75;;;6.03;;
16705;SDS011;8469;60.136;15.180;2023-11-21T00:23:16;12.82;;;6.00;;
16705;SDS011;8469;60.136;15.180;2023-11-21T00:25:44;10.05;;;5.47;;
16705;SDS011;8469;60.136;15.180;2023-11-21T00:28:11;13.93;;;6.80;;
16705;SDS011;8469;60.136;15.180;2023-11-21T00:30:39;11.20;;;5.47;;
16705;SDS011;8469;60.136;15.180;2023-11-21T00:33:06;12.80;;;5.95;;
16705;SDS011;8469;60.136;15.180;2023-11-21T00:35:34;12.95;;;6.05;;
16705;SDS011;8469;60.136;15.180;2023-11-21T00:38:01;13.13;;;6.17;;
16705;SDS011;8469;60.136;15.180;2023-11-21T00:40:29;12.47;;;5.83;;
16705;SDS011;8469;60.136;15.180;2023-11-21T00:42:58;11.83;;;5.65;;
16705;SDS011;8469;60.136;15.180;2023-11-21T00:45:25;12.63;;;6.35;;
16705;SDS011;8469;60.136;15.180;2023-11-21T00:47:53;12.68;;;6.15;;
16705;SDS011;8469;60.136;15.180;2023-11-21T00:50:21;12.15;;;5.62;;
16705;SDS011;8469;60.136;15.180;2023-11-21T00:52:48;11.63;;;6.30;;
16705;SDS011;8469;60.136;15.180;2023-11-21T00:55:17;11.35;;;5.50;;
16705;SDS011;8469;60.136;15.180;2023-11-21T00:57:45;12.05;;;6.33;;
16705;SDS011;8469;60.136;15.180;2023-11-21T01:00:17;12.47;;;6.10;;
16705;SDS011;8469;60.136;15.180;2023-11-21T01:02:45;11.15;;;5.85;;
16705;SDS011;8469;60.136;15.180;2023-11-21T01:05:14;13.03;;;6.25;;
16705;SDS011;8469;60.136;15.180;2023-11-21T01:07:41;11.48;;;6.08;;
16705;SDS011;8469;60.136;15.180;2023-11-21T01:10:08;11.38;;;5.87;;
16705;SDS011;8469;60.136;15.180;2023-11-21T01:12:36;9.65;;;5.90;;
16705;SDS011;8469;60.136;15.180;2023-11-21T01:15:04;11.95;;;6.35;;
16705;SDS011;8469;60.136;15.180;2023-11-21T01:17:33;14.07;;;6.53;;
16705;SDS011;8469;60.136;15.180;2023-11-21T01:20:02;13.22;;;6.28;;
16705;SDS011;8469;60.136;15.180;2023-11-21T01:22:31;12.43;;;6.30;;
16705;SDS011;8469;60.136;15.180;2023-11-21T01:24:58;9.70;;;5.33;;
16705;SDS011;8469;60.136;15.180;2023-11-21T01:27:25;12.18;;;5.87;;
16705;SDS011;8469;60.136;15.180;2023-11-21T01:29:53;9.78;;;5.83;;
16705;SDS011;8469;60.136;15.180;2023-11-21T01:32:20;9.20;;;4.85;;
16705;SDS011;8469;60.136;15.180;2023-11-21T01:34:47;9.25;;;5.37;;
16705;SDS011;8469;60.136;15.180;2023-11-21T01:37:15;10.58;;;5.72;;
16705;SDS011;8469;60.136;15.180;2023-11-21T01:39:43;9.00;;;5.47;;
16705;SDS011;8469;60.136;15.180;2023-11-21T01:42:10;9.60;;;4.70;;
16705;SDS011;8469;60.136;15.180;2023-11-21T01:44:39;8.08;;;4.80;;
16705;SDS011;8469;60.136;15.180;2023-11-21T01:47:07;7.85;;;4.50;;
16705;SDS011;8469;60.136;15.180;2023-11-21T01:52:38;8.95;;;5.05;;
16705;SDS011;8469;60.136;15.180;2023-11-21T01:55:07;8.55;;;4.47;;
16705;SDS011;8469;60.136;15.180;2023-11-21T01:57:38;8.93;;;4.60;;
16705;SDS011;8469;60.136;15.180;2023-11-21T02:00:06;6.57;;;4.27;;
16705;SDS011;8469;60.136;15.180;2023-11-21T02:02:43;7.00;;;4.45;;
16705;SDS011;8469;60.136;15.180;2023-11-21T02:05:11;6.33;;;4.22;;
16705;SDS011;8469;60.136;15.180;2023-11-21T02:07:39;6.42;;;4.20;;
16705;SDS011;8469;60.136;15.180;2023-11-21T02:10:07;6.45;;;3.80;;
16705;SDS011;8469;60.136;15.180;2023-11-21T02:12:34;6.50;;;3.87;;
16705;SDS011;8469;60.136;15.180;2023-11-21T02:15:02;7.08;;;4.22;;
16705;SDS011;8469;60.136;15.180;2023-11-21T02:17:35;6.55;;;4.60;;
16705;SDS011;8469;60.136;15.180;2023-11-21T02:20:02;8.78;;;5.17;;
16705;SDS011;8469;60.136;15.180;2023-11-21T02:22:30;8.78;;;4.78;;
16705;SDS011;8469;60.136;15.180;2023-11-21T02:24:58;9.08;;;5.05;;
16705;SDS011;8469;60.136;15.180;2023-11-21T02:27:25;9.70;;;5.65;;
16705;SDS011;8469;60.136;15.180;2023-11-21T02:29:53;10.35;;;5.12;;
16705;SDS011;8469;60.136;15.180;2023-11-21T02:32:21;7.60;;;4.45;;
16705;SDS011;8469;60.136;15.180;2023-11-21T02:34:49;8.37;;;4.70;;
16705;SDS011;8469;60.136;15.180;2023-11-21T02:37:16;7.37;;;4.42;;
16705;SDS011;8469;60.136;15.180;2023-11-21T02:39:44;6.78;;;4.83;;
16705;SDS011;8469;60.136;15.180;2023-11-21T02:42:11;7.45;;;4.95;;
16705;SDS011;8469;60.136;15.180;2023-11-21T02:44:38;7.65;;;4.00;;
16705;SDS011;8469;60.136;15.180;2023-11-21T02:47:06;7.87;;;4.40;;
16705;SDS011;8469;60.136;15.180;2023-11-21T02:49:33;7.73;;;4.57;;
16705;SDS011;8469;60.136;15.180;2023-11-21T02:52:02;7.70;;;4.40;;
16705;SDS011;8469;60.136;15.180;2023-11-21T02:54:29;7.23;;;4.30;;
16705;SDS011;8469;60.136;15.180;2023-11-21T02:56:58;8.00;;;4.60;;
16705;SDS011;8469;60.136;15.180;2023-11-21T02:59:26;8.25;;;5.10;;
16705;SDS011;8469;60.136;15.180;2023-11-21T03:01:53;9.03;;;5.35;;
16705;SDS011;8469;60.136;15.180;2023-11-21T03:04:20;8.20;;;4.57;;
16705;SDS011;8469;60.136;15.180;2023-11-21T03:06:47;6.78;;;4.40;;
16705;SDS011;8469;60.136;15.180;2023-11-21T03:09:15;6.03;;;4.25;;
16705;SDS011;8469;60.136;15.180;2023-11-21T03:11:42;8.68;;;4.50;;
16705;SDS011;8469;60.136;15.180;2023-11-21T03:14:10;5.33;;;3.70;;
16705;SDS011;8469;60.136;15.180;2023-11-21T03:16:37;6.92;;;4.17;;
16705;SDS011;8469;60.136;15.180;2023-11-21T03:19:04;6.67;;;3.90;;
16705;SDS011;8469;60.136;15.180;2023-11-21T03:21:32;7.05;;;3.83;;
16705;SDS011;8469;60.136;15.180;2023-11-21T03:23:59;4.47;;;3.50;;
16705;SDS011;8469;60.136;15.180;2023-11-21T03:26:26;4.85;;;3.08;;
16705;SDS011;8469;60.136;15.180;2023-11-21T03:28:53;5.70;;;3.40;;
16705;SDS011;8469;60.136;15.180;2023-11-21T03:31:22;4.85;;;3.37;;
16705;SDS011;8469;60.136;15.180;2023-11-21T03:33:49;4.55;;;2.95;;
16705;SDS011;8469;60.136;15.180;2023-11-21T03:36:16;5.25;;;3.50;;
16705;SDS011;8469;60.136;15.180;2023-11-21T03:38:44;4.23;;;3.13;;
16705;SDS011;8469;60.136;15.180;2023-11-21T03:41:11;4.85;;;3.10;;
16705;SDS011;8469;60.136;15.180;2023-11-21T03:43:39;6.90;;;4.35;;
16705;SDS011;8469;60.136;15.180;2023-11-21T03:46:06;4.25;;;2.90;;
16705;SDS011;8469;60.136;15.180;2023-11-21T03:48:33;4.00;;;2.90;;
16705;SDS011;8469;60.136;15.180;2023-11-21T03:51:01;4.00;;;2.72;;
16705;SDS011;8469;60.136;15.180;2023-11-21T03:53:29;3.80;;;2.65;;
16705;SDS011;8469;60.136;15.180;2023-11-21T03:55:57;4.33;;;2.87;;
16705;SDS011;8469;60.136;15.180;2023-11-21T03:58:24;3.20;;;2.27;;
16705;SDS011;8469;60.136;15.180;2023-11-21T04:00:51;3.23;;;2.70;;
16705;SDS011;8469;60.136;15.180;2023-11-21T04:03:19;3.05;;;2.40;;
16705;SDS011;8469;60.136;15.180;2023-11-21T04:05:46;3.15;;;2.50;;
16705;SDS011;8469;60.136;15.180;2023-11-21T04:08:13;3.63;;;2.57;;
16705;SDS011;8469;60.136;15.180;2023-11-21T04:10:41;2.40;;;2.20;;
16705;SDS011;8469;60.136;15.180;2023-11-21T04:13:08;3.60;;;2.83;;
16705;SDS011;8469;60.136;15.180;2023-11-21T04:15:36;3.35;;;2.45;;
16705;SDS011;8469;60.136;15.180;2023-11-21T04:18:04;3.00;;;2.00;;
16705;SDS011;8469;60.136;15.180;2023-11-21T04:20:31;3.75;;;2.35;;
16705;SDS011;8469;60.136;15.180;2023-11-21T04:22:58;3.52;;;2.45;;
16705;SDS011;8469;60.136;15.180;2023-11-21T04:25:26;4.28;;;2.70;;
16705;SDS011;8469;60.136;15.180;2023-11-21T04:27:54;2.85;;;2.33;;
16705;SDS011;8469;60.136;15.180;2023-11-21T04:30:21;4.65;;;2.52;;
16705;SDS011;8469;60.136;15.180;2023-11-21T04:32:49;2.45;;;2.25;;
16705;SDS011;8469;60.136;15.180;2023-11-21T04:35:17;2.25;;;1.95;;
16705;SDS011;8469;60.136;15.180;2023-11-21T04:37:44;3.40;;;1.95;;
16705;SDS011;8469;60.136;15.180;2023-11-21T04:40:12;2.27;;;2.10;;
16705;SDS011;8469;60.136;15.180;2023-11-21T04:42:39;2.80;;;2.00;;
16705;SDS011;8469;60.136;15.180;2023-11-21T04:45:07;2.70;;;1.90;;
16705;SDS011;8469;60.136;15.180;2023-11-21T04:47:38;2.52;;;2.05;;
16705;SDS011;8469;60.136;15.180;2023-11-21T04:50:05;2.08;;;1.80;;
16705;SDS011;8469;60.136;15.180;2023-11-21T04:52:32;2.43;;;1.90;;
16705;SDS011;8469;60.136;15.180;2023-11-21T04:55:00;2.87;;;2.08;;
16705;SDS011;8469;60.136;15.180;2023-11-21T04:57:28;3.27;;;2.10;;
16705;SDS011;8469;60.136;15.180;2023-11-21T04:59:56;2.27;;;2.08;;
16705;SDS011;8469;60.136;15.180;2023-11-21T05:02:23;2.50;;;2.20;;
16705;SDS011;8469;60.136;15.180;2023-11-21T05:04:50;2.33;;;1.80;;
16705;SDS011;8469;60.136;15.180;2023-11-21T05:07:18;2.22;;;1.80;;
16705;SDS011;8469;60.136;15.180;2023-11-21T05:09:45;1.60;;;1.50;;
16705;SDS011;8469;60.136;15.180;2023-11-21T05:12:12;1.80;;;1.50;;
16705;SDS011;8469;60.136;15.180;2023-11-21T05:14:40;1.87;;;1.65;;
16705;SDS011;8469;60.136;15.180;2023-11-21T05:17:08;2.00;;;1.80;;
16705;SDS011;8469;60.136;15.180;2023-11-21T05:19:35;2.00;;;1.40;;
16705;SDS011;8469;60.136;15.180;2023-11-21T05:22:03;2.17;;;1.70;;
16705;SDS011;8469;60.136;15.180;2023-11-21T05:24:31;1.67;;;1.47;;
16705;SDS011;8469;60.136;15.180;2023-11-21T05:26:59;1.60;;;1.50;;
16705;SDS011;8469;60.136;15.180;2023-11-21T05:29:26;1.37;;;1.30;;
16705;SDS011;8469;60.136;15.180;2023-11-21T05:31:53;1.60;;;1.50;;
16705;SDS011;8469;60.136;15.180;2023-11-21T05:34:21;1.20;;;1.10;;
16705;SDS011;8469;60.136;15.180;2023-11-21T05:36:50;1.20;;;1.20;;
16705;SDS011;8469;60.136;15.180;2023-11-21T05:39:17;1.32;;;1.20;;
16705;SDS011;8469;60.136;15.180;2023-11-21T05:41:45;1.07;;;1.05;;
16705;SDS011;8469;60.136;15.180;2023-11-21T05:44:13;1.52;;;1.30;;
16705;SDS011;8469;60.136;15.180;2023-11-21T05:46:40;1.90;;;1.60;;
16705;SDS011;8469;60.136;15.180;2023-11-21T05:49:09;1.53;;;1.43;;
16705;SDS011;8469;60.136;15.180;2023-11-21T05:51:37;1.30;;;1.20;;
16705;SDS011;8469;60.136;15.180;2023-11-21T05:54:05;1.00;;;1.00;;
16705;SDS011;8469;60.136;15.180;2023-11-21T05:56:32;1.10;;;1.10;;
16705;SDS011;8469;60.136;15.180;2023-11-21T05:58:59;1.47;;;1.02;;
16705;SDS011;8469;60.136;15.180;2023-11-21T06:01:28;1.90;;;1.22;;
16705;SDS011;8469;60.136;15.180;2023-11-21T06:03:55;1.57;;;1.40;;
16705;SDS011;8469;60.136;15.180;2023-11-21T06:06:22;1.00;;;1.00;;
16705;SDS011;8469;60.136;15.180;2023-11-21T06:08:51;1.30;;;1.20;;
16705;SDS011;8469;60.136;15.180;2023-11-21T06:11:18;3.80;;;1.15;;
16705;SDS011;8469;60.136;15.180;2023-11-21T06:13:45;1.15;;;1.05;;
16705;SDS011;8469;60.136;15.180;2023-11-21T06:16:14;1.10;;;1.00;;
16705;SDS011;8469;60.136;15.180;2023-11-21T06:18:43;1.00;;;1.00;;
16705;SDS011;8469;60.136;15.180;2023-11-21T06:21:11;1.77;;;1.30;;
16705;SDS011;8469;60.136;15.180;2023-11-21T06:23:38;1.07;;;1.07;;
16705;SDS011;8469;60.136;15.180;2023-11-21T06:26:05;1.00;;;1.00;;
16705;SDS011;8469;60.136;15.180;2023-11-21T06:28:33;1.20;;;1.10;;
16705;SDS011;8469;60.136;15.180;2023-11-21T06:31:00;1.32;;;1.20;;
16705;SDS011;8469;60.136;15.180;2023-11-21T06:33:29;1.30;;;1.20;;
16705;SDS011;8469;60.136;15.180;2023-11-21T06:35:57;1.17;;;1.15;;
16705;SDS011;8469;60.136;15.180;2023-11-21T06:38:24;1.77;;;1.20;;
16705;SDS011;8469;60.136;15.180;2023-11-21T06:40:53;1.17;;;1.10;;
16705;SDS011;8469;60.136;15.180;2023-11-21T06:43:21;1.30;;;1.20;;
16705;SDS011;8469;60.136;15.180;2023-11-21T06:45:49;1.20;;;1.10;;
16705;SDS011;8469;60.136;15.180;2023-11-21T06:48:16;1.32;;;1.15;;
16705;SDS011;8469;60.136;15.180;2023-11-21T06:50:43;1.17;;;1.10;;
16705;SDS011;8469;60.136;15.180;2023-11-21T06:53:10;1.00;;;1.00;;
16705;SDS011;8469;60.136;15.180;2023-11-21T06:55:39;1.20;;;1.10;;
16705;SDS011;8469;60.136;15.180;2023-11-21T06:58:07;1.13;;;1.03;;
16705;SDS011;8469;60.136;15.180;2023-11-21T07:00:34;1.90;;;1.10;;
16705;SDS011;8469;60.136;15.180;2023-11-21T07:03:01;1.80;;;1.00;;
16705;SDS011;8469;60.136;15.180;2023-11-21T07:05:29;1.12;;;1.10;;
16705;SDS011;8469;60.136;15.180;2023-11-21T07:07:56;1.10;;;1.10;;
16705;SDS011;8469;60.136;15.180;2023-11-21T07:10:25;1.55;;;1.45;;
16705;SDS011;8469;60.136;15.180;2023-11-21T07:12:53;1.77;;;1.30;;
16705;SDS011;8469;60.136;15.180;2023-11-21T07:15:20;1.00;;;1.00;;
16705;SDS011;8469;60.136;15.180;2023-11-21T07:17:47;1.12;;;1.02;;
16705;SDS011;8469;60.136;15.180;2023-11-21T07:20:14;0.97;;;0.97;;
16705;SDS011;8469;60.136;15.180;2023-11-21T07:22:43;1.20;;;1.10;;
16705;SDS011;8469;60.136;15.180;2023-11-21T07:25:10;1.00;;;1.00;;
16705;SDS011;8469;60.136;15.180;2023-11-21T07:27:38;1.05;;;1.05;;
16705;SDS011;8469;60.136;15.180;2023-11-21T07:30:05;1.23;;;1.13;;
16705;SDS011;8469;60.136;15.180;2023-11-21T07:32:34;2.17;;;1.75;;
16705;SDS011;8469;60.136;15.180;2023-11-21T07:35:02;1.52;;;1.10;;
16705;SDS011;8469;60.136;15.180;2023-11-21T07:37:29;1.07;;;1.05;;
16705;SDS011;8469;60.136;15.180;2023-11-21T07:39:56;3.10;;;1.22;;
16705;SDS011;8469;60.136;15.180;2023-11-21T07:42:24;1.17;;;1.07;;
16705;SDS011;8469;60.136;15.180;2023-11-21T07:44:53;1.40;;;1.10;;
16705;SDS011;8469;60.136;15.180;2023-11-21T07:47:20;1.25;;;1.10;;
16705;SDS011;8469;60.136;15.180;2023-11-21T07:49:50;1.00;;;1.00;;
16705;SDS011;8469;60.136;15.180;2023-11-21T07:52:16;0.90;;;0.90;;
16705;SDS011;8469;60.136;15.180;2023-11-21T07:54:43;0.80;;;0.80;;
16705;SDS011;8469;60.136;15.180;2023-11-21T07:57:11;1.12;;;1.10;;
16705;SDS011;8469;60.136;15.180;2023-11-21T07:59:40;0.98;;;0.98;;
16705;SDS011;8469;60.136;15.180;2023-11-21T08:02:10;1.00;;;1.00;;
16705;SDS011;8469;60.136;15.180;2023-11-21T08:04:38;1.32;;;1.22;;
16705;SDS011;8469;60.136;15.180;2023-11-21T08:07:05;1.00;;;0.90;;
16705;SDS011;8469;60.136;15.180;2023-11-21T08:09:32;1.30;;;1.20;;
16705;SDS011;8469;60.136;15.180;2023-11-21T08:12:00;1.30;;;1.20;;
16705;SDS011;8469;60.136;15.180;2023-11-21T08:14:29;1.02;;;1.00;;
16705;SDS011;8469;60.136;15.180;2023-11-21T08:16:56;1.12;;;1.00;;
16705;SDS011;8469;60.136;15.180;2023-11-21T08:19:23;3.10;;;2.27;;
16705;SDS011;8469;60.136;15.180;2023-11-21T08:21:54;1.05;;;1.05;;
16705;SDS011;8469;60.136;15.180;2023-11-21T08:24:21;1.20;;;1.10;;
16705;SDS011;8469;60.136;15.180;2023-11-21T08:26:49;1.00;;;0.90;;
16705;SDS011;8469;60.136;15.180;2023-11-21T08:29:17;1.00;;;1.00;;
16705;SDS011;8469;60.136;15.180;2023-11-21T08:31:44;1.00;;;1.00;;
16705;SDS011;8469;60.136;15.180;2023-11-21T08:34:13;1.00;;;1.00;;
16705;SDS011;8469;60.136;15.180;2023-11-21T08:36:46;3.17;;;1.12;;
16705;SDS011;8469;60.136;15.180;2023-11-21T08:39:10;1.25;;;1.15;;
16705;SDS011;8469;60.136;15.180;2023-11-21T08:41:39;1.85;;;1.20;;
16705;SDS011;8469;60.136;15.180;2023-11-21T08:44:10;1.17;;;1.07;;
16705;SDS011;8469;60.136;15.180;2023-11-21T08:46:37;0.90;;;0.90;;
16705;SDS011;8469;60.136;15.180;2023-11-21T08:49:06;1.10;;;1.10;;
16705;SDS011;8469;60.136;15.180;2023-11-21T08:51:33;0.87;;;0.83;;
16705;SDS011;8469;60.136;15.180;2023-11-21T08:54:00;0.75;;;0.75;;
16705;SDS011;8469;60.136;15.180;2023-11-21T08:56:29;1.00;;;1.00;;
16705;SDS011;8469;60.136;15.180;2023-11-21T08:58:56;1.35;;;1.20;;
16705;SDS011;8469;60.136;15.180;2023-11-21T09:01:24;1.35;;;1.17;;
16705;SDS011;8469;60.136;15.180;2023-11-21T09:03:52;1.05;;;0.98;;
16705;SDS011;8469;60.136;15.180;2023-11-21T09:06:19;0.80;;;0.80;;
16705;SDS011;8469;60.136;15.180;2023-11-21T09:08:46;3.17;;;1.00;;
16705;SDS011;8469;60.136;15.180;2023-11-21T09:11:14;1.00;;;1.00;;
16705;SDS011;8469;60.136;15.180;2023-11-21T09:13:41;1.20;;;1.00;;
16705;SDS011;8469;60.136;15.180;2023-11-21T09:16:09;0.97;;;0.97;;
16705;SDS011;8469;60.136;15.180;2023-11-21T09:18:37;1.20;;;1.10;;
16705;SDS011;8469;60.136;15.180;2023-11-21T09:21:04;1.20;;;1.03;;
16705;SDS011;8469;60.136;15.180;2023-11-21T09:23:31;1.02;;;1.02;;
16705;SDS011;8469;60.136;15.180;2023-11-21T09:25:59;0.88;;;0.88;;
16705;SDS011;8469;60.136;15.180;2023-11-21T09:28:27;1.00;;;0.85;;
16705;SDS011;8469;60.136;15.180;2023-11-21T09:30:55;1.07;;;1.07;;
16705;SDS011;8469;60.136;15.180;2023-11-21T09:33:22;0.97;;;0.97;;
16705;SDS011;8469;60.136;15.180;2023-11-21T09:35:51;1.00;;;0.98;;
16705;SDS011;8469;60.136;15.180;2023-11-21T09:38:19;1.10;;;1.00;;
16705;SDS011;8469;60.136;15.180;2023-11-21T09:40:46;1.12;;;0.90;;
16705;SDS011;8469;60.136;15.180;2023-11-21T09:43:16;1.00;;;1.00;;
16705;SDS011;8469;60.136;15.180;2023-11-21T09:45:51;1.00;;;0.90;;
16705;SDS011;8469;60.136;15.180;2023-11-21T09:48:14;1.55;;;0.98;;
16705;SDS011;8469;60.136;15.180;2023-11-21T09:50:42;1.10;;;1.00;;
16705;SDS011;8469;60.136;15.180;2023-11-21T09:55:42;1.00;;;1.00;;
16705;SDS011;8469;60.136;15.180;2023-11-21T09:58:10;1.00;;;1.00;;
16705;SDS011;8469;60.136;15.180;2023-11-21T10:00:41;1.35;;;1.25;;
16705;SDS011;8469;60.136;15.180;2023-11-21T10:03:08;0.93;;;0.82;;
16705;SDS011;8469;60.136;15.180;2023-11-21T10:05:36;0.90;;;0.90;;
16705;SDS011;8469;60.136;15.180;2023-11-21T10:08:04;1.80;;;1.00;;
16705;SDS011;8469;60.136;15.180;2023-11-21T10:10:34;1.00;;;1.00;;
16705;SDS011;8469;60.136;15.180;2023-11-21T10:13:03;1.17;;;0.93;;
16705;SDS011;8469;60.136;15.180;2023-11-21T10:15:33;1.72;;;1.45;;
16705;SDS011;8469;60.136;15.180;2023-11-21T10:18:02;1.75;;;0.90;;
16705;SDS011;8469;60.136;15.180;2023-11-21T10:20:33;1.15;;;1.05;;
16705;SDS011;8469;60.136;15.180;2023-11-21T10:23:00;1.12;;;1.10;;
16705;SDS011;8469;60.136;15.180;2023-11-21T10:25:30;1.85;;;1.25;;
16705;SDS011;8469;60.136;15.180;2023-11-21T10:28:01;2.20;;;2.00;;
16705;SDS011;8469;60.136;15.180;2023-11-21T10:30:34;1.70;;;1.05;;
16705;SDS011;8469;60.136;15.180;2023-11-21T10:32:59;2.37;;;1.10;;
16705;SDS011;8469;60.136;15.180;2023-11-21T10:35:44;0.90;;;0.90;;
16705;SDS011;8469;60.136;15.180;2023-11-21T10:38:17;0.80;;;0.80;;
16705;SDS011;8469;60.136;15.180;2023-11-21T10:40:46;0.88;;;0.80;;
16705;SDS011;8469;60.136;15.180;2023-11-21T10:43:15;1.33;;;1.23;;
16705;SDS011;8469;60.136;15.180;2023-11-21T10:45:43;1.55;;;1.45;;
16705;SDS011;8469;60.136;15.180;2023-11-21T10:48:15;1.03;;;1.03;;
16705;SDS011;8469;60.136;15.180;2023-11-21T10:50:41;2.15;;;1.17;;
16705;SDS011;8469;60.136;15.180;2023-11-21T10:53:08;1.10;;;1.10;;
16705;SDS011;8469;60.136;15.180;2023-11-21T10:55:35;2.25;;;1.70;;
16705;SDS011;8469;60.136;15.180;2023-11-21T10:58:03;3.75;;;1.55;;
16705;SDS011;8469;60.136;15.180;2023-11-21T11:00:35;3.80;;;2.20;;
16705;SDS011;8469;60.136;15.180;2023-11-21T11:03:00;1.10;;;1.10;;
16705;SDS011;8469;60.136;15.180;2023-11-21T11:05:27;3.83;;;2.00;;
16705;SDS011;8469;60.136;15.180;2023-11-21T11:07:59;3.87;;;2.23;;
16705;SDS011;8469;60.136;15.180;2023-11-21T11:10:28;4.42;;;2.55;;
16705;SDS011;8469;60.136;15.180;2023-11-21T11:12:57;7.10;;;3.30;;
16705;SDS011;8469;60.136;15.180;2023-11-21T11:15:25;1.03;;;0.97;;
16705;SDS011;8469;60.136;15.180;2023-11-21T11:17:53;3.05;;;2.00;;
16705;SDS011;8469;60.136;15.180;2023-11-21T11:20:24;1.52;;;1.42;;
16705;SDS011;8469;60.136;15.180;2023-11-21T11:25:35;1.37;;;1.22;;
16705;SDS011;8469;60.136;15.180;2023-11-21T11:30:40;1.45;;;1.17;;
16705;SDS011;8469;60.136;15.180;2023-11-21T11:35:55;1.20;;;1.10;;
16705;SDS011;8469;60.136;15.180;2023-11-21T11:38:33;0.78;;;0.78;;
16705;SDS011;8469;60.136;15.180;2023-11-21T11:40:57;1.37;;;1.00;;
16705;SDS011;8469;60.136;15.180;2023-11-21T11:43:26;1.30;;;1.20;;
16705;SDS011;8469;60.136;15.180;2023-11-21T11:45:56;0.90;;;0.90;;
16705;SDS011;8469;60.136;15.180;2023-11-21T11:48:25;2.35;;;1.05;;
16705;SDS011;8469;60.136;15.180;2023-11-21T11:51:02;1.30;;;1.20;;
16705;SDS011;8469;60.136;15.180;2023-11-21T11:53:33;3.15;;;1.50;;
16705;SDS011;8469;60.136;15.180;2023-11-21T11:58:39;0.77;;;0.77;;
16705;SDS011;8469;60.136;15.180;2023-11-21T12:01:06;1.07;;;0.98;;
16705;SDS011;8469;60.136;15.180;2023-11-21T12:03:33;1.10;;;1.00;;
16705;SDS011;8469;60.136;15.180;2023-11-21T12:06:03;0.98;;;0.98;;
16705;SDS011;8469;60.136;15.180;2023-11-21T12:08:32;1.55;;;1.00;;
16705;SDS011;8469;60.136;15.180;2023-11-21T12:11:00;1.00;;;0.90;;
16705;SDS011;8469;60.136;15.180;2023-11-21T12:13:28;1.10;;;0.90;;
16705;SDS011;8469;60.136;15.180;2023-11-21T12:15:55;1.40;;;1.17;;
16705;SDS011;8469;60.136;15.180;2023-11-21T12:18:23;0.90;;;0.90;;
16705;SDS011;8469;60.136;15.180;2023-11-21T12:20:52;0.83;;;0.83;;
16705;SDS011;8469;60.136;15.180;2023-11-21T12:23:19;1.00;;;1.00;;
16705;SDS011;8469;60.136;15.180;2023-11-21T12:25:47;1.00;;;0.90;;
16705;SDS011;8469;60.136;15.180;2023-11-21T12:28:14;1.70;;;1.10;;
16705;SDS011;8469;60.136;15.180;2023-11-21T12:30:43;1.27;;;1.00;;
16705;SDS011;8469;60.136;15.180;2023-11-21T12:33:11;1.10;;;1.10;;
16705;SDS011;8469;60.136;15.180;2023-11-21T12:35:40;1.00;;;1.00;;
16705;SDS011;8469;60.136;15.180;2023-11-21T12:38:07;0.90;;;0.90;;
16705;SDS011;8469;60.136;15.180;2023-11-21T12:40:37;0.90;;;0.90;;
16705;SDS011;8469;60.136;15.180;2023-11-21T12:43:05;1.05;;;1.05;;
16705;SDS011;8469;60.136;15.180;2023-11-21T12:45:33;0.90;;;0.80;;
16705;SDS011;8469;60.136;15.180;2023-11-21T12:48:02;0.95;;;0.85;;
16705;SDS011;8469;60.136;15.180;2023-11-21T12:50:33;0.90;;;0.90;;
16705;SDS011;8469;60.136;15.180;2023-11-21T12:53:03;1.10;;;0.88;;
16705;SDS011;8469;60.136;15.180;2023-11-21T12:55:32;3.30;;;0.90;;
16705;SDS011;8469;60.136;15.180;2023-11-21T12:58:01;1.00;;;1.00;;
16705;SDS011;8469;60.136;15.180;2023-11-21T13:00:33;0.90;;;0.90;;
16705;SDS011;8469;60.136;15.180;2023-11-21T13:03:04;0.90;;;0.80;;
16705;SDS011;8469;60.136;15.180;2023-11-21T13:05:35;1.00;;;1.00;;
16705;SDS011;8469;60.136;15.180;2023-11-21T13:08:05;0.90;;;0.90;;
16705;SDS011;8469;60.136;15.180;2023-11-21T13:10:34;1.10;;;1.07;;
16705;SDS011;8469;60.136;15.180;2023-11-21T13:13:03;1.35;;;1.17;;
16705;SDS011;8469;60.136;15.180;2023-11-21T13:15:40;0.90;;;0.90;;
16705;SDS011;8469;60.136;15.180;2023-11-21T13:18:07;1.32;;;1.22;;
16705;SDS011;8469;60.136;15.180;2023-11-21T13:20:36;0.98;;;0.98;;
16705;SDS011;8469;60.136;15.180;2023-11-21T13:23:07;0.78;;;0.78;;
16705;SDS011;8469;60.136;15.180;2023-11-21T13:25:33;0.93;;;0.90;;
16705;SDS011;8469;60.136;15.180;2023-11-21T13:28:02;1.35;;;1.20;;
16705;SDS011;8469;60.136;15.180;2023-11-21T13:30:30;1.60;;;1.22;;
16705;SDS011;8469;60.136;15.180;2023-11-21T13:33:05;0.90;;;0.90;;
16705;SDS011;8469;60.136;15.180;2023-11-21T13:35:31;1.15;;;1.00;;
16705;SDS011;8469;60.136;15.180;2023-11-21T13:38:06;1.30;;;1.17;;
16705;SDS011;8469;60.136;15.180;2023-11-21T13:40:37;1.50;;;1.40;;
16705;SDS011;8469;60.136;15.180;2023-11-21T13:43:12;1.85;;;1.20;;
16705;SDS011;8469;60.136;15.180;2023-11-21T13:45:40;2.77;;;1.30;;
16705;SDS011;8469;60.136;15.180;2023-11-21T13:48:08;1.92;;;1.20;;
16705;SDS011;8469;60.136;15.180;2023-11-21T13:50:40;1.40;;;1.30;;
16705;SDS011;8469;60.136;15.180;2023-11-21T13:53:09;2.75;;;1.10;;
16705;SDS011;8469;60.136;15.180;2023-11-21T13:55:44;1.22;;;1.10;;
16705;SDS011;8469;60.136;15.180;2023-11-21T13:58:15;1.00;;;1.00;;
16705;SDS011;8469;60.136;15.180;2023-11-21T14:00:45;1.20;;;1.10;;
16705;SDS011;8469;60.136;15.180;2023-11-21T14:03:12;1.27;;;1.20;;
16705;SDS011;8469;60.136;15.180;2023-11-21T14:05:48;1.30;;;1.20;;
16705;SDS011;8469;60.136;15.180;2023-11-21T14:08:18;1.00;;;1.00;;
16705;SDS011;8469;60.136;15.180;2023-11-21T14:10:47;1.50;;;0.93;;
16705;SDS011;8469;60.136;15.180;2023-11-21T14:13:19;1.25;;;1.15;;
16705;SDS011;8469;60.136;15.180;2023-11-21T14:15:47;0.70;;;0.70;;
16705;SDS011;8469;60.136;15.180;2023-11-21T14:18:17;0.90;;;0.90;;
16705;SDS011;8469;60.136;15.180;2023-11-21T14:20:46;1.05;;;1.05;;
16705;SDS011;8469;60.136;15.180;2023-11-21T14:23:14;1.67;;;1.20;;
16705;SDS011;8469;60.136;15.180;2023-11-21T14:25:41;1.45;;;1.35;;
16705;SDS011;8469;60.136;15.180;2023-11-21T14:28:09;1.20;;;1.15;;
16705;SDS011;8469;60.136;15.180;2023-11-21T14:30:38;1.73;;;1.40;;
16705;SDS011;8469;60.136;15.180;2023-11-21T14:33:06;1.20;;;1.10;;
16705;SDS011;8469;60.136;15.180;2023-11-21T14:35:34;3.90;;;1.32;;
16705;SDS011;8469;60.136;15.180;2023-11-21T14:38:02;1.10;;;1.00;;
16705;SDS011;8469;60.136;15.180;2023-11-21T14:40:31;1.55;;;1.20;;
16705;SDS011;8469;60.136;15.180;2023-11-21T14:43:02;1.30;;;1.20;;
16705;SDS011;8469;60.136;15.180;2023-11-21T14:45:33;0.80;;;0.80;;
16705;SDS011;8469;60.136;15.180;2023-11-21T14:48:01;0.85;;;0.85;;
16705;SDS011;8469;60.136;15.180;2023-11-21T14:50:33;2.52;;;1.00;;
16705;SDS011;8469;60.136;15.180;2023-11-21T14:53:18;0.98;;;0.98;;
16705;SDS011;8469;60.136;15.180;2023-11-21T14:55:47;1.00;;;1.00;;
16705;SDS011;8469;60.136;15.180;2023-11-21T14:58:19;1.00;;;1.00;;
16705;SDS011;8469;60.136;15.180;2023-11-21T15:00:48;1.10;;;1.00;;
16705;SDS011;8469;60.136;15.180;2023-11-21T15:03:16;0.70;;;0.70;;
16705;SDS011;8469;60.136;15.180;2023-11-21T15:05:46;9.57;;;4.83;;
16705;SDS011;8469;60.136;15.180;2023-11-21T15:08:15;3.13;;;1.43;;